Liberty Promise — WWMZ — position and weather

sailwx.info

Track history (hours):
 
Tides and Currents Weather Stations Pressure Air Temp Water Temp Dewpoint Dewpoint Depression Visibility Wind Speed Wind Dir Waves Ship Positions

Liberty Promise

Owner: LIBERTY PROMISE CORPORATION, LAKE SUCCESS, NY. More information available from US FCC via Universal Licensing System and Coast Guard Vessel Documentation Center.

Last reported at 2017-Jul-20 04:30 UTC. Time now 2017-Jul-20 20:23 UTC.
Position N 25°01' E 120°13'.

Length 200 m; draft 7.9 m.

Type: Cargo ship. MMSI: 366102000.

Date/timePositionNaut miles runAvg speedWind from/ knotsBaromVisibWave heightAir tempDewpointWater temp
2017-Jul-20 04:30N 25°01' E 120°13'  
2017-Jul-16 14:37N 01°15' E 104°08'317.3
2017-Jul-16 14:28N 01°15' E 104°05'714.5
2017-Jul-16 14:00N 01°14' E 103°58'2 3.3
2017-Jul-16 13:30N 01°13' E 103°57'4 8.0
2017-Jul-16 13:00N 01°12' E 103°53'510.7
2017-Jul-16 12:30N 01°10' E 103°48'510.6
2017-Jul-16 12:00N 01°06' E 103°44'611.8
2017-Jul-16 11:30N 01°03' E 103°40'713.5
2017-Jul-16 11:00N 01°05' E 103°34'814.7
2017-Jul-16 10:30N 01°09' E 103°27'1018.7
2017-Jul-16 09:59N 01°15' E 103°19'  
Track history (hours):
 
Tides and Currents Weather Stations Pressure Air Temp Water Temp Dewpoint Dewpoint Depression Visibility Wind Speed Wind Dir Waves Ship Positions

Liberty Promise

Owner: LIBERTY PROMISE CORPORATION, LAKE SUCCESS, NY. More information available from US FCC via Universal Licensing System and Coast Guard Vessel Documentation Center.

Last reported at 2017-Jul-20 04:30 UTC. Time now 2017-Jul-20 20:23 UTC.
Position N 25°01' E 120°13'.

Length 200 m; draft 7.9 m.

Type: Cargo ship. MMSI: 366102000.

Date/timePositionNaut miles runAvg speedWind from/ knotsBaromVisibWave heightAir tempDewpointWater temp
2017-Jul-20 04:30N 25°01' E 120°13'  
2017-Jul-16 14:37N 01°15' E 104°08'317.3
2017-Jul-16 14:28N 01°15' E 104°05'714.5
2017-Jul-16 14:00N 01°14' E 103°58'2 3.3
2017-Jul-16 13:30N 01°13' E 103°57'4 8.0
2017-Jul-16 13:00N 01°12' E 103°53'510.7
2017-Jul-16 12:30N 01°10' E 103°48'510.6
2017-Jul-16 12:00N 01°06' E 103°44'611.8
2017-Jul-16 11:30N 01°03' E 103°40'713.5
2017-Jul-16 11:00N 01°05' E 103°34'814.7
2017-Jul-16 10:30N 01°09' E 103°27'1018.7
2017-Jul-16 09:59N 01°15' E 103°19'  

Dump ship's entire track history